sensor_id;sensor_type;location;lat;lon;timestamp;pressure;altitude;pressure_sealevel;temperature;humidity
10658;BME280;5377;43.276;26.930;2023-10-19T00:00:56;99302.91;;;8.85;100.00
10658;BME280;5377;43.276;26.930;2023-10-19T00:03:23;99296.22;;;8.74;100.00
10658;BME280;5377;43.276;26.930;2023-10-19T00:05:50;99303.28;;;8.82;100.00
10658;BME280;5377;43.276;26.930;2023-10-19T00:08:16;99286.56;;;8.73;100.00
10658;BME280;5377;43.276;26.930;2023-10-19T00:10:46;99284.06;;;8.72;100.00
10658;BME280;5377;43.276;26.930;2023-10-19T00:13:16;99295.72;;;8.86;100.00
10658;BME280;5377;43.276;26.930;2023-10-19T00:15:46;99290.38;;;8.86;100.00
10658;BME280;5377;43.276;26.930;2023-10-19T00:18:17;99286.56;;;8.73;100.00
10658;BME280;5377;43.276;26.930;2023-10-19T00:20:49;99295.38;;;8.59;100.00
10658;BME280;5377;43.276;26.930;2023-10-19T00:23:19;99286.09;;;8.70;100.00
10658;BME280;5377;43.276;26.930;2023-10-19T00:25:51;99287.00;;;8.62;100.00
10658;BME280;5377;43.276;26.930;2023-10-19T00:28:18;99276.50;;;8.75;100.00
10658;BME280;5377;43.276;26.930;2023-10-19T00:30:46;99244.47;;;8.61;100.00
10658;BME280;5377;43.276;26.930;2023-10-19T00:33:16;99263.28;;;8.67;100.00
10658;BME280;5377;43.276;26.930;2023-10-19T00:35:45;99269.13;;;8.63;100.00
10658;BME280;5377;43.276;26.930;2023-10-19T00:38:25;99275.41;;;8.55;100.00
10658;BME280;5377;43.276;26.930;2023-10-19T00:41:05;99225.47;;;8.34;100.00
10658;BME280;5377;43.276;26.930;2023-10-19T00:43:37;99260.41;;;8.69;100.00
10658;BME280;5377;43.276;26.930;2023-10-19T00:46:10;99262.59;;;8.65;100.00
10658;BME280;5377;43.276;26.930;2023-10-19T00:48:44;99279.44;;;8.66;100.00
10658;BME280;5377;43.276;26.930;2023-10-19T00:51:12;99278.63;;;8.65;100.00
10658;BME280;5377;43.276;26.930;2023-10-19T00:53:53;99244.31;;;8.48;100.00
10658;BME280;5377;43.276;26.930;2023-10-19T00:56:21;99268.13;;;8.64;100.00
10658;BME280;5377;43.276;26.930;2023-10-19T00:58:52;99272.00;;;8.61;100.00
10658;BME280;5377;43.276;26.930;2023-10-19T01:01:28;99272.09;;;8.53;100.00
10658;BME280;5377;43.276;26.930;2023-10-19T01:03:55;99233.91;;;8.23;100.00
10658;BME280;5377;43.276;26.930;2023-10-19T01:06:24;99261.72;;;8.43;100.00
10658;BME280;5377;43.276;26.930;2023-10-19T01:08:51;99245.69;;;8.14;100.00
10658;BME280;5377;43.276;26.930;2023-10-19T01:11:19;99261.31;;;8.32;100.00
10658;BME280;5377;43.276;26.930;2023-10-19T01:13:47;99267.03;;;8.29;100.00
10658;BME280;5377;43.276;26.930;2023-10-19T01:16:17;99263.72;;;8.27;100.00
10658;BME280;5377;43.276;26.930;2023-10-19T01:18:50;99258.34;;;8.35;100.00
10658;BME280;5377;43.276;26.930;2023-10-19T01:21:22;99266.16;;;8.36;100.00
10658;BME280;5377;43.276;26.930;2023-10-19T01:23:54;99255.34;;;8.30;100.00
10658;BME280;5377;43.276;26.930;2023-10-19T01:26:21;99231.06;;;8.10;100.00
10658;BME280;5377;43.276;26.930;2023-10-19T01:28:52;99248.38;;;8.14;100.00
10658;BME280;5377;43.276;26.930;2023-10-19T01:31:23;99242.56;;;8.10;100.00
10658;BME280;5377;43.276;26.930;2023-10-19T01:33:56;99232.34;;;8.14;100.00
10658;BME280;5377;43.276;26.930;2023-10-19T01:36:25;99254.63;;;8.21;100.00
10658;BME280;5377;43.276;26.930;2023-10-19T01:38:53;99248.44;;;8.21;100.00
10658;BME280;5377;43.276;26.930;2023-10-19T01:41:21;99250.66;;;8.17;100.00
10658;BME280;5377;43.276;26.930;2023-10-19T01:43:50;99239.06;;;7.95;100.00
10658;BME280;5377;43.276;26.930;2023-10-19T01:46:16;99243.75;;;7.93;100.00
10658;BME280;5377;43.276;26.930;2023-10-19T01:48:50;99240.53;;;8.12;100.00
10658;BME280;5377;43.276;26.930;2023-10-19T01:51:21;99213.13;;;7.89;100.00
10658;BME280;5377;43.276;26.930;2023-10-19T01:53:48;99249.66;;;8.18;100.00
10658;BME280;5377;43.276;26.930;2023-10-19T01:56:17;99237.41;;;8.09;100.00
10658;BME280;5377;43.276;26.930;2023-10-19T01:58:46;99237.31;;;8.17;100.00
10658;BME280;5377;43.276;26.930;2023-10-19T02:01:14;99236.22;;;8.11;100.00
10658;BME280;5377;43.276;26.930;2023-10-19T02:03:46;99206.97;;;7.89;100.00
10658;BME280;5377;43.276;26.930;2023-10-19T02:06:18;99240.09;;;8.09;100.00
10658;BME280;5377;43.276;26.930;2023-10-19T02:08:45;99214.13;;;7.88;100.00
10658;BME280;5377;43.276;26.930;2023-10-19T02:11:19;99240.81;;;8.03;100.00
10658;BME280;5377;43.276;26.930;2023-10-19T02:13:48;99224.44;;;7.91;100.00
10658;BME280;5377;43.276;26.930;2023-10-19T02:16:16;99221.75;;;7.91;100.00
10658;BME280;5377;43.276;26.930;2023-10-19T02:18:42;99237.53;;;8.01;100.00
10658;BME280;5377;43.276;26.930;2023-10-19T02:21:09;99240.47;;;8.06;100.00
10658;BME280;5377;43.276;26.930;2023-10-19T02:23:38;99242.72;;;7.94;100.00
10658;BME280;5377;43.276;26.930;2023-10-19T02:26:07;99240.34;;;7.85;100.00
10658;BME280;5377;43.276;26.930;2023-10-19T02:28:34;99243.94;;;7.92;100.00
10658;BME280;5377;43.276;26.930;2023-10-19T02:31:04;99227.47;;;7.73;100.00
10658;BME280;5377;43.276;26.930;2023-10-19T02:33:41;99246.50;;;7.85;100.00
10658;BME280;5377;43.276;26.930;2023-10-19T02:36:11;99249.72;;;7.80;100.00
10658;BME280;5377;43.276;26.930;2023-10-19T02:38:39;99251.28;;;7.75;100.00
10658;BME280;5377;43.276;26.930;2023-10-19T02:41:09;99254.03;;;7.81;100.00
10658;BME280;5377;43.276;26.930;2023-10-19T02:43:37;99248.72;;;7.81;100.00
10658;BME280;5377;43.276;26.930;2023-10-19T02:46:04;99262.22;;;7.80;100.00
10658;BME280;5377;43.276;26.930;2023-10-19T02:48:30;99255.41;;;7.77;100.00
10658;BME280;5377;43.276;26.930;2023-10-19T02:50:57;99261.41;;;7.79;100.00
10658;BME280;5377;43.276;26.930;2023-10-19T02:53:32;99262.50;;;7.85;100.00
10658;BME280;5377;43.276;26.930;2023-10-19T02:56:09;99256.63;;;7.90;100.00
10658;BME280;5377;43.276;26.930;2023-10-19T02:58:40;99251.84;;;7.85;100.00
10658;BME280;5377;43.276;26.930;2023-10-19T03:01:15;99241.72;;;7.80;100.00
10658;BME280;5377;43.276;26.930;2023-10-19T03:03:43;99239.97;;;7.88;100.00
10658;BME280;5377;43.276;26.930;2023-10-19T03:06:11;99236.38;;;7.80;100.00
10658;BME280;5377;43.276;26.930;2023-10-19T03:08:38;99232.88;;;7.80;100.00
10658;BME280;5377;43.276;26.930;2023-10-19T07:47:19;99077.22;;;18.60;67.41
10658;BME280;5377;43.276;26.930;2023-10-19T07:49:47;99076.84;;;19.06;65.40
10658;BME280;5377;43.276;26.930;2023-10-19T07:52:17;99070.66;;;18.78;65.43
10658;BME280;5377;43.276;26.930;2023-10-19T07:54:44;99062.56;;;18.83;64.25
10658;BME280;5377;43.276;26.930;2023-10-19T07:57:10;99069.91;;;18.88;63.55
10658;BME280;5377;43.276;26.930;2023-10-19T07:59:38;99068.53;;;19.17;62.37
10658;BME280;5377;43.276;26.930;2023-10-19T08:02:05;99071.69;;;19.04;61.78
10658;BME280;5377;43.276;26.930;2023-10-19T08:04:35;99054.78;;;19.76;60.18
10658;BME280;5377;43.276;26.930;2023-10-19T08:07:02;99053.44;;;20.46;57.41
10658;BME280;5377;43.276;26.930;2023-10-19T08:09:29;99059.09;;;20.30;56.92
10658;BME280;5377;43.276;26.930;2023-10-19T08:11:57;99028.72;;;20.48;56.11
10658;BME280;5377;43.276;26.930;2023-10-19T08:14:24;99042.22;;;20.17;55.99
10658;BME280;5377;43.276;26.930;2023-10-19T08:16:51;99054.66;;;20.08;55.99
10658;BME280;5377;43.276;26.930;2023-10-19T08:19:19;99049.34;;;19.71;57.02
10658;BME280;5377;43.276;26.930;2023-10-19T08:21:47;99037.16;;;19.37;57.94
10658;BME280;5377;43.276;26.930;2023-10-19T08:24:14;99047.63;;;19.55;57.91
10658;BME280;5377;43.276;26.930;2023-10-19T08:26:43;99024.31;;;19.64;57.33
10658;BME280;5377;43.276;26.930;2023-10-19T08:29:11;99046.31;;;20.35;56.09
10658;BME280;5377;43.276;26.930;2023-10-19T08:31:39;99037.13;;;20.41;54.83
10658;BME280;5377;43.276;26.930;2023-10-19T08:34:06;99050.50;;;20.53;54.53
10658;BME280;5377;43.276;26.930;2023-10-19T08:36:35;99039.34;;;21.10;53.18
10658;BME280;5377;43.276;26.930;2023-10-19T08:39:04;99033.91;;;21.21;51.13
10658;BME280;5377;43.276;26.930;2023-10-19T08:41:32;99041.44;;;21.74;49.61
10658;BME280;5377;43.276;26.930;2023-10-19T08:44:02;99037.66;;;21.50;49.19
10658;BME280;5377;43.276;26.930;2023-10-19T08:46:29;99053.75;;;21.16;49.44
10658;BME280;5377;43.276;26.930;2023-10-19T08:48:56;99005.03;;;21.30;49.07
10658;BME280;5377;43.276;26.930;2023-10-19T08:51:24;98970.25;;;21.76;47.54
10658;BME280;5377;43.276;26.930;2023-10-19T08:53:53;99030.34;;;22.20;47.25
10658;BME280;5377;43.276;26.930;2023-10-19T08:56:21;99024.19;;;22.49;46.58
10658;BME280;5377;43.276;26.930;2023-10-19T08:58:50;99032.72;;;22.76;45.43
10658;BME280;5377;43.276;26.930;2023-10-19T09:01:18;99033.59;;;22.71;45.26
10658;BME280;5377;43.276;26.930;2023-10-19T09:03:50;99025.78;;;23.23;44.25
10658;BME280;5377;43.276;26.930;2023-10-19T09:06:17;99007.56;;;22.79;44.13
10658;BME280;5377;43.276;26.930;2023-10-19T09:08:47;99019.53;;;22.93;44.05
10658;BME280;5377;43.276;26.930;2023-10-19T09:11:15;99010.16;;;22.65;43.95
10658;BME280;5377;43.276;26.930;2023-10-19T09:13:47;99006.75;;;22.84;44.33
10658;BME280;5377;43.276;26.930;2023-10-19T09:16:16;98987.97;;;22.72;43.85
10658;BME280;5377;43.276;26.930;2023-10-19T09:18:43;98994.72;;;22.46;44.15
10658;BME280;5377;43.276;26.930;2023-10-19T09:21:10;98987.00;;;22.58;43.83
10658;BME280;5377;43.276;26.930;2023-10-19T09:23:38;98983.91;;;22.69;43.52
10658;BME280;5377;43.276;26.930;2023-10-19T09:26:07;98976.97;;;22.04;44.37
10658;BME280;5377;43.276;26.930;2023-10-19T09:28:35;98988.03;;;22.28;43.86
10658;BME280;5377;43.276;26.930;2023-10-19T09:31:05;98959.72;;;22.58;43.50
10658;BME280;5377;43.276;26.930;2023-10-19T09:33:35;98969.31;;;22.84;43.12
10658;BME280;5377;43.276;26.930;2023-10-19T09:36:03;98977.59;;;23.08;42.59
10658;BME280;5377;43.276;26.930;2023-10-19T09:38:38;98947.75;;;23.12;42.00
10658;BME280;5377;43.276;26.930;2023-10-19T09:41:10;98959.03;;;22.71;42.81
10658;BME280;5377;43.276;26.930;2023-10-19T09:43:43;98960.78;;;22.62;42.81
10658;BME280;5377;43.276;26.930;2023-10-19T09:46:12;98944.41;;;23.20;42.21
10658;BME280;5377;43.276;26.930;2023-10-19T09:48:47;98911.25;;;23.74;39.78
10658;BME280;5377;43.276;26.930;2023-10-19T09:51:15;98940.91;;;24.23;39.74
10658;BME280;5377;43.276;26.930;2023-10-19T09:53:46;98938.25;;;24.18;38.98
10658;BME280;5377;43.276;26.930;2023-10-19T09:56:19;98920.53;;;24.35;38.54
10658;BME280;5377;43.276;26.930;2023-10-19T09:58:50;98910.41;;;24.49;37.97
10658;BME280;5377;43.276;26.930;2023-10-19T10:01:20;98919.25;;;24.78;37.60
10658;BME280;5377;43.276;26.930;2023-10-19T10:03:50;98915.88;;;25.55;36.50
10658;BME280;5377;43.276;26.930;2023-10-19T10:06:27;98909.19;;;24.87;37.46
10658;BME280;5377;43.276;26.930;2023-10-19T10:08:54;98907.97;;;25.40;37.47
10658;BME280;5377;43.276;26.930;2023-10-19T10:11:23;98914.44;;;25.03;36.50
10658;BME280;5377;43.276;26.930;2023-10-19T10:13:53;98907.03;;;25.03;37.14
10658;BME280;5377;43.276;26.930;2023-10-19T10:16:24;98910.28;;;25.19;36.08
10658;BME280;5377;43.276;26.930;2023-10-19T10:18:55;98904.09;;;25.13;35.67
10658;BME280;5377;43.276;26.930;2023-10-19T10:21:24;98893.63;;;25.57;35.65
10658;BME280;5377;43.276;26.930;2023-10-19T10:23:52;98895.09;;;24.80;36.74
10658;BME280;5377;43.276;26.930;2023-10-19T10:26:21;98897.19;;;25.16;36.60
10658;BME280;5377;43.276;26.930;2023-10-19T10:29:08;98895.16;;;25.35;36.04
10658;BME280;5377;43.276;26.930;2023-10-19T10:31:42;98901.28;;;24.86;36.21
10658;BME280;5377;43.276;26.930;2023-10-19T10:34:10;98851.63;;;25.06;35.45
10658;BME280;5377;43.276;26.930;2023-10-19T10:36:59;98871.19;;;25.27;35.15
10658;BME280;5377;43.276;26.930;2023-10-19T10:39:28;98868.16;;;24.55;35.96
10658;BME280;5377;43.276;26.930;2023-10-19T10:41:56;98856.91;;;25.03;35.39
10658;BME280;5377;43.276;26.930;2023-10-19T10:44:39;98865.53;;;25.10;35.36
10658;BME280;5377;43.276;26.930;2023-10-19T10:47:09;98860.97;;;25.33;34.77
10658;BME280;5377;43.276;26.930;2023-10-19T10:49:52;98861.78;;;25.33;34.52
10658;BME280;5377;43.276;26.930;2023-10-19T10:52:26;98862.06;;;25.45;34.37
10658;BME280;5377;43.276;26.930;2023-10-19T10:54:54;98845.00;;;24.47;35.60
10658;BME280;5377;43.276;26.930;2023-10-19T10:57:21;98848.97;;;24.55;35.82
10658;BME280;5377;43.276;26.930;2023-10-19T11:00:00;98851.06;;;24.91;34.79
10658;BME280;5377;43.276;26.930;2023-10-19T11:02:30;98842.56;;;25.33;34.06
10658;BME280;5377;43.276;26.930;2023-10-19T11:04:57;98781.22;;;25.29;33.70
10658;BME280;5377;43.276;26.930;2023-10-19T11:07:25;98858.69;;;25.98;33.31
10658;BME280;5377;43.276;26.930;2023-10-19T11:09:52;98841.09;;;25.77;33.39
10658;BME280;5377;43.276;26.930;2023-10-19T11:12:20;98806.78;;;25.52;33.53
10658;BME280;5377;43.276;26.930;2023-10-19T11:14:53;98818.59;;;25.25;34.20
10658;BME280;5377;43.276;26.930;2023-10-19T11:17:21;98805.31;;;26.04;33.67
10658;BME280;5377;43.276;26.930;2023-10-19T11:19:55;98826.63;;;25.85;33.50
10658;BME280;5377;43.276;26.930;2023-10-19T11:22:23;98804.78;;;25.30;33.73
10658;BME280;5377;43.276;26.930;2023-10-19T11:24:51;98821.22;;;25.30;34.03
10658;BME280;5377;43.276;26.930;2023-10-19T11:27:23;98814.84;;;25.85;33.60
10658;BME280;5377;43.276;26.930;2023-10-19T11:29:56;98804.56;;;25.40;34.32
10658;BME280;5377;43.276;26.930;2023-10-19T11:32:23;98809.72;;;25.56;34.17
10658;BME280;5377;43.276;26.930;2023-10-19T11:34:52;98808.63;;;25.43;34.19
10658;BME280;5377;43.276;26.930;2023-10-19T11:37:20;98809.25;;;25.26;34.65
10658;BME280;5377;43.276;26.930;2023-10-19T11:39:47;98808.44;;;25.39;34.60
10658;BME280;5377;43.276;26.930;2023-10-19T11:42:15;98792.69;;;25.81;34.04
10658;BME280;5377;43.276;26.930;2023-10-19T11:44:43;98783.94;;;26.01;34.01
10658;BME280;5377;43.276;26.930;2023-10-19T11:47:11;98793.94;;;25.97;34.06
10658;BME280;5377;43.276;26.930;2023-10-19T11:49:38;98791.59;;;26.04;33.56
10658;BME280;5377;43.276;26.930;2023-10-19T11:52:05;98811.84;;;26.70;32.51
10658;BME280;5377;43.276;26.930;2023-10-19T11:54:34;98797.22;;;27.49;30.90
10658;BME280;5377;43.276;26.930;2023-10-19T11:57:01;98782.16;;;28.33;30.22
10658;BME280;5377;43.276;26.930;2023-10-19T11:59:28;98773.44;;;27.96;30.50
10658;BME280;5377;43.276;26.930;2023-10-19T12:01:55;98778.25;;;28.34;30.05
10658;BME280;5377;43.276;26.930;2023-10-19T12:04:24;98774.09;;;28.02;30.41
10658;BME280;5377;43.276;26.930;2023-10-19T12:06:51;98792.56;;;26.62;32.01
10658;BME280;5377;43.276;26.930;2023-10-19T12:09:18;98758.47;;;26.32;32.70
10658;BME280;5377;43.276;26.930;2023-10-19T12:11:51;98765.53;;;26.95;32.31
10658;BME280;5377;43.276;26.930;2023-10-19T12:14:20;98767.41;;;27.17;32.27
10658;BME280;5377;43.276;26.930;2023-10-19T12:16:48;98758.91;;;26.87;32.04
10658;BME280;5377;43.276;26.930;2023-10-19T12:19:15;98769.44;;;26.54;33.03
10658;BME280;5377;43.276;26.930;2023-10-19T12:21:44;98787.81;;;26.00;33.58
10658;BME280;5377;43.276;26.930;2023-10-19T12:24:11;98768.75;;;25.73;34.18
10658;BME280;5377;43.276;26.930;2023-10-19T12:26:38;98782.47;;;25.95;34.37
10658;BME280;5377;43.276;26.930;2023-10-19T12:29:06;98767.47;;;25.07;34.91
10658;BME280;5377;43.276;26.930;2023-10-19T12:31:36;98759.16;;;24.98;35.32
10658;BME280;5377;43.276;26.930;2023-10-19T12:34:05;98780.97;;;25.53;34.55
10658;BME280;5377;43.276;26.930;2023-10-19T12:36:32;98757.66;;;25.78;34.30
10658;BME280;5377;43.276;26.930;2023-10-19T12:39:00;98771.75;;;25.85;34.15
10658;BME280;5377;43.276;26.930;2023-10-19T12:41:31;98767.75;;;26.14;33.95
10658;BME280;5377;43.276;26.930;2023-10-19T12:43:58;98750.16;;;25.92;33.83
10658;BME280;5377;43.276;26.930;2023-10-19T12:46:29;98758.84;;;25.49;34.50
10658;BME280;5377;43.276;26.930;2023-10-19T12:48:56;98752.34;;;26.04;33.96
10658;BME280;5377;43.276;26.930;2023-10-19T12:51:24;98753.13;;;26.27;33.75
10658;BME280;5377;43.276;26.930;2023-10-19T12:53:51;98747.47;;;26.32;34.06
10658;BME280;5377;43.276;26.930;2023-10-19T12:56:19;98746.50;;;25.74;34.97
10658;BME280;5377;43.276;26.930;2023-10-19T12:58:46;98742.06;;;25.87;34.81
10658;BME280;5377;43.276;26.930;2023-10-19T13:01:15;98742.63;;;25.75;34.98
10658;BME280;5377;43.276;26.930;2023-10-19T13:03:45;98744.94;;;26.35;34.24
10658;BME280;5377;43.276;26.930;2023-10-19T13:06:13;98738.88;;;26.95;33.72
10658;BME280;5377;43.276;26.930;2023-10-19T13:08:40;98734.06;;;26.53;33.47
10658;BME280;5377;43.276;26.930;2023-10-19T13:11:08;98713.63;;;26.05;34.22
10658;BME280;5377;43.276;26.930;2023-10-19T13:13:35;98726.41;;;26.98;33.43
10658;BME280;5377;43.276;26.930;2023-10-19T13:16:04;98717.53;;;26.44;33.35
10658;BME280;5377;43.276;26.930;2023-10-19T13:18:34;98734.28;;;26.34;33.89
10658;BME280;5377;43.276;26.930;2023-10-19T13:21:02;98729.31;;;26.93;33.32
10658;BME280;5377;43.276;26.930;2023-10-19T13:23:30;98729.97;;;25.88;34.41
10658;BME280;5377;43.276;26.930;2023-10-19T13:25:59;98734.66;;;25.52;35.08
10658;BME280;5377;43.276;26.930;2023-10-19T13:28:34;98722.34;;;25.27;35.14
10658;BME280;5377;43.276;26.930;2023-10-19T13:31:03;98714.91;;;25.41;35.15
10658;BME280;5377;43.276;26.930;2023-10-19T13:33:30;98711.22;;;25.45;35.22
10658;BME280;5377;43.276;26.930;2023-10-19T13:35:57;98718.13;;;25.65;35.10
10658;BME280;5377;43.276;26.930;2023-10-19T13:38:25;98664.06;;;24.99;35.73
10658;BME280;5377;43.276;26.930;2023-10-19T13:40:52;98693.72;;;24.69;36.47
10658;BME280;5377;43.276;26.930;2023-10-19T13:43:19;98694.78;;;25.09;36.42
10658;BME280;5377;43.276;26.930;2023-10-19T13:45:47;98709.34;;;24.69;36.46
10658;BME280;5377;43.276;26.930;2023-10-19T13:48:14;98684.47;;;24.79;36.66
10658;BME280;5377;43.276;26.930;2023-10-19T13:50:43;98676.97;;;24.71;36.55
10658;BME280;5377;43.276;26.930;2023-10-19T13:53:11;98692.47;;;24.89;36.17
10658;BME280;5377;43.276;26.930;2023-10-19T13:55:39;98686.78;;;24.85;36.59
10658;BME280;5377;43.276;26.930;2023-10-19T13:58:06;98677.47;;;25.00;36.30
10658;BME280;5377;43.276;26.930;2023-10-19T14:00:33;98683.84;;;24.82;36.33
10658;BME280;5377;43.276;26.930;2023-10-19T14:03:06;98692.19;;;24.36;37.03
10658;BME280;5377;43.276;26.930;2023-10-19T14:05:36;98690.78;;;24.52;37.03
10658;BME280;5377;43.276;26.930;2023-10-19T14:08:04;98680.69;;;24.06;37.75
10658;BME280;5377;43.276;26.930;2023-10-19T14:10:31;98679.03;;;24.38;37.19
10658;BME280;5377;43.276;26.930;2023-10-19T14:12:59;98669.28;;;24.32;36.91
10658;BME280;5377;43.276;26.930;2023-10-19T14:15:26;98671.97;;;24.18;37.35
10658;BME280;5377;43.276;26.930;2023-10-19T14:17:56;98672.59;;;23.69;38.17
10658;BME280;5377;43.276;26.930;2023-10-19T14:20:24;98681.25;;;23.57;38.27
10658;BME280;5377;43.276;26.930;2023-10-19T14:22:51;98672.25;;;23.56;38.40
10658;BME280;5377;43.276;26.930;2023-10-19T14:25:20;98674.59;;;23.44;38.83
10658;BME280;5377;43.276;26.930;2023-10-19T14:27:49;98670.81;;;23.59;38.95
10658;BME280;5377;43.276;26.930;2023-10-19T14:30:21;98671.53;;;23.32;39.36
10658;BME280;5377;43.276;26.930;2023-10-19T14:32:49;98664.44;;;23.12;39.37
10658;BME280;5377;43.276;26.930;2023-10-19T14:35:21;98671.53;;;22.94;39.94
10658;BME280;5377;43.276;26.930;2023-10-19T14:37:49;98675.31;;;22.98;40.02
10658;BME280;5377;43.276;26.930;2023-10-19T14:40:18;98666.13;;;22.89;40.32
10658;BME280;5377;43.276;26.930;2023-10-19T14:42:45;98669.84;;;22.56;40.83
10658;BME280;5377;43.276;26.930;2023-10-19T14:45:16;98668.44;;;22.58;41.11
10658;BME280;5377;43.276;26.930;2023-10-19T14:47:47;98676.03;;;22.61;41.37
10658;BME280;5377;43.276;26.930;2023-10-19T14:50:17;98658.66;;;22.52;41.91
10658;BME280;5377;43.276;26.930;2023-10-19T14:52:45;98664.09;;;22.33;42.30
10658;BME280;5377;43.276;26.930;2023-10-19T14:55:13;98659.38;;;22.15;42.83
10658;BME280;5377;43.276;26.930;2023-10-19T14:57:42;98661.84;;;21.88;43.48
10658;BME280;5377;43.276;26.930;2023-10-19T15:00:11;98658.63;;;21.46;44.34
10658;BME280;5377;43.276;26.930;2023-10-19T15:02:42;98662.34;;;20.82;45.76
10658;BME280;5377;43.276;26.930;2023-10-19T15:05:12;98649.75;;;20.27;46.78
10658;BME280;5377;43.276;26.930;2023-10-19T15:07:41;98667.25;;;19.90;48.14
10658;BME280;5377;43.276;26.930;2023-10-19T15:10:10;98664.03;;;19.63;48.92
10658;BME280;5377;43.276;26.930;2023-10-19T15:12:38;98659.91;;;19.35;49.86
10658;BME280;5377;43.276;26.930;2023-10-19T15:15:06;98660.19;;;19.18;50.75
10658;BME280;5377;43.276;26.930;2023-10-19T15:17:34;98675.34;;;19.04;51.58
10658;BME280;5377;43.276;26.930;2023-10-19T15:20:01;98673.69;;;18.83;52.36
10658;BME280;5377;43.276;26.930;2023-10-19T15:22:30;98680.97;;;18.67;53.43
10658;BME280;5377;43.276;26.930;2023-10-19T15:24:57;98682.59;;;18.68;54.04
10658;BME280;5377;43.276;26.930;2023-10-19T15:27:24;98685.56;;;18.66;54.45
10658;BME280;5377;43.276;26.930;2023-10-19T15:29:52;98674.66;;;18.56;55.09
10658;BME280;5377;43.276;26.930;2023-10-19T15:32:18;98691.38;;;18.38;55.46
10658;BME280;5377;43.276;26.930;2023-10-19T15:34:45;98682.22;;;18.44;55.71
10658;BME280;5377;43.276;26.930;2023-10-19T15:37:13;98688.13;;;18.36;55.99
10658;BME280;5377;43.276;26.930;2023-10-19T15:39:41;98685.97;;;18.38;56.42
10658;BME280;5377;43.276;26.930;2023-10-19T15:42:10;98690.53;;;18.32;56.89
10658;BME280;5377;43.276;26.930;2023-10-19T15:44:36;98693.81;;;18.34;57.45
10658;BME280;5377;43.276;26.930;2023-10-19T15:47:03;98689.16;;;18.25;58.16
10658;BME280;5377;43.276;26.930;2023-10-19T15:49:35;98689.69;;;18.22;58.74
10658;BME280;5377;43.276;26.930;2023-10-19T15:52:02;98657.53;;;17.93;59.33
10658;BME280;5377;43.276;26.930;2023-10-19T15:54:29;98668.66;;;17.97;59.89
10658;BME280;5377;43.276;26.930;2023-10-19T15:56:57;98663.72;;;17.84;60.64
10658;BME280;5377;43.276;26.930;2023-10-19T15:59:24;98642.66;;;17.59;61.52
10658;BME280;5377;43.276;26.930;2023-10-19T16:01:52;98667.06;;;17.64;62.01
10658;BME280;5377;43.276;26.930;2023-10-19T16:04:20;98655.31;;;17.48;62.85
10658;BME280;5377;43.276;26.930;2023-10-19T16:06:47;98653.63;;;17.42;63.71
10658;BME280;5377;43.276;26.930;2023-10-19T16:09:14;98664.69;;;17.35;64.24
10658;BME280;5377;43.276;26.930;2023-10-19T16:11:42;98663.03;;;17.34;65.06
10658;BME280;5377;43.276;26.930;2023-10-19T16:14:10;98656.78;;;17.34;65.00
10658;BME280;5377;43.276;26.930;2023-10-19T16:16:37;98666.31;;;17.36;65.09
10658;BME280;5377;43.276;26.930;2023-10-19T16:19:04;98662.53;;;17.37;65.42
10658;BME280;5377;43.276;26.930;2023-10-19T16:21:31;98672.22;;;17.33;65.65
10658;BME280;5377;43.276;26.930;2023-10-19T16:23:58;98658.75;;;17.38;66.05
10658;BME280;5377;43.276;26.930;2023-10-19T16:26:24;98664.69;;;17.35;65.79
10658;BME280;5377;43.276;26.930;2023-10-19T16:28:51;98647.25;;;17.26;66.03
10658;BME280;5377;43.276;26.930;2023-10-19T16:31:20;98668.78;;;17.38;66.39
10658;BME280;5377;43.276;26.930;2023-10-19T16:33:47;98659.41;;;17.24;67.11
10658;BME280;5377;43.276;26.930;2023-10-19T16:36:15;98627.75;;;16.92;67.28
10658;BME280;5377;43.276;26.930;2023-10-19T16:38:42;98660.66;;;17.11;67.89
10658;BME280;5377;43.276;26.930;2023-10-19T16:41:09;98680.63;;;17.05;68.86
10658;BME280;5377;43.276;26.930;2023-10-19T16:43:35;98667.38;;;17.03;68.22
10658;BME280;5377;43.276;26.930;2023-10-19T16:46:03;98600.22;;;16.68;67.81
10658;BME280;5377;43.276;26.930;2023-10-19T16:48:32;98668.53;;;17.12;68.07
10658;BME280;5377;43.276;26.930;2023-10-19T16:51:02;98669.59;;;17.11;68.16
10658;BME280;5377;43.276;26.930;2023-10-19T16:53:29;98659.28;;;17.08;68.50
10658;BME280;5377;43.276;26.930;2023-10-19T16:55:58;98660.31;;;17.02;68.61
10658;BME280;5377;43.276;26.930;2023-10-19T16:58:25;98652.94;;;16.98;69.10
10658;BME280;5377;43.276;26.930;2023-10-19T17:00:52;98650.75;;;16.95;69.15
10658;BME280;5377;43.276;26.930;2023-10-19T17:03:19;98647.50;;;16.93;69.82
10658;BME280;5377;43.276;26.930;2023-10-19T17:05:47;98646.41;;;16.94;70.13
10658;BME280;5377;43.276;26.930;2023-10-19T17:08:14;98578.31;;;16.48;70.48
10658;BME280;5377;43.276;26.930;2023-10-19T17:10:41;98635.00;;;16.87;71.01
10658;BME280;5377;43.276;26.930;2023-10-19T17:13:08;98642.19;;;16.76;71.46
10658;BME280;5377;43.276;26.930;2023-10-19T17:15:35;98638.38;;;16.72;71.86
10658;BME280;5377;43.276;26.930;2023-10-19T17:18:03;98628.72;;;16.59;72.62
10658;BME280;5377;43.276;26.930;2023-10-19T17:20:30;98646.47;;;16.50;73.46
10658;BME280;5377;43.276;26.930;2023-10-19T17:22:59;98647.19;;;16.40;74.16
10658;BME280;5377;43.276;26.930;2023-10-19T17:25:25;98640.25;;;16.28;75.09
10658;BME280;5377;43.276;26.930;2023-10-19T17:27:54;98641.06;;;16.06;76.68
10658;BME280;5377;43.276;26.930;2023-10-19T17:30:21;98638.38;;;16.06;77.06
10658;BME280;5377;43.276;26.930;2023-10-19T17:32:48;98633.81;;;15.90;77.77
10658;BME280;5377;43.276;26.930;2023-10-19T17:35:15;98635.53;;;15.96;78.21
10658;BME280;5377;43.276;26.930;2023-10-19T17:37:42;98634.56;;;15.85;78.88
10658;BME280;5377;43.276;26.930;2023-10-19T17:40:10;98636.56;;;15.73;80.00
10658;BME280;5377;43.276;26.930;2023-10-19T17:42:38;98643.19;;;15.66;81.05
10658;BME280;5377;43.276;26.930;2023-10-19T17:45:05;98641.69;;;15.41;82.62